sensor_id;sensor_type;location;lat;lon;timestamp;pressure;altitude;pressure_sealevel;temperature;humidity
54453;BME280;40363;52.270;10.546;2022-08-03T00:01:16;75354.88;;;-147.06;50.06
54453;BME280;40363;52.270;10.546;2022-08-03T00:03:43;75369.28;;;-147.06;49.77
54453;BME280;40363;52.270;10.546;2022-08-03T00:06:09;75369.28;;;-147.06;49.92
54453;BME280;40363;52.270;10.546;2022-08-03T00:08:36;75371.31;;;-147.06;50.09
54453;BME280;40363;52.270;10.546;2022-08-03T00:11:03;75371.31;;;-147.06;50.04
54453;BME280;40363;52.270;10.546;2022-08-03T00:13:31;75375.44;;;-147.06;49.92
54453;BME280;40363;52.270;10.546;2022-08-03T00:15:58;75367.22;;;-147.06;50.12
54453;BME280;40363;52.270;10.546;2022-08-03T00:18:26;75373.38;;;-147.06;50.03
54453;BME280;40363;52.270;10.546;2022-08-03T00:20:53;75383.66;;;-147.06;50.21
54453;BME280;40363;52.270;10.546;2022-08-03T00:23:19;75379.53;;;-147.06;50.64
54453;BME280;40363;52.270;10.546;2022-08-03T00:25:46;75393.94;;;-147.06;50.45
54453;BME280;40363;52.270;10.546;2022-08-03T00:28:13;75393.94;;;-147.06;50.69
54453;BME280;40363;52.270;10.546;2022-08-03T00:30:39;75387.75;;;-147.06;50.55
54453;BME280;40363;52.270;10.546;2022-08-03T00:33:06;75393.94;;;-147.06;51.32
54453;BME280;40363;52.270;10.546;2022-08-03T00:35:36;75406.25;;;-147.06;52.10
54453;BME280;40363;52.270;10.546;2022-08-03T00:38:02;75420.63;;;-147.06;51.91
54453;BME280;40363;52.270;10.546;2022-08-03T00:40:29;75420.63;;;-147.06;51.94
54453;BME280;40363;52.270;10.546;2022-08-03T00:42:57;75432.97;;;-147.06;52.24
54453;BME280;40363;52.270;10.546;2022-08-03T00:45:26;75432.97;;;-147.06;51.66
54453;BME280;40363;52.270;10.546;2022-08-03T00:47:53;75430.91;;;-147.06;51.88
54453;BME280;40363;52.270;10.546;2022-08-03T00:50:21;75437.06;;;-147.06;51.94
54453;BME280;40363;52.270;10.546;2022-08-03T00:52:51;75441.19;;;-147.06;51.75
54453;BME280;40363;52.270;10.546;2022-08-03T00:55:19;75441.19;;;-147.06;52.08
54453;BME280;40363;52.270;10.546;2022-08-03T00:57:46;75432.97;;;-147.06;52.08
54453;BME280;40363;52.270;10.546;2022-08-03T01:00:15;75426.81;;;-147.06;52.00
54453;BME280;40363;52.270;10.546;2022-08-03T01:02:43;75437.06;;;-147.06;52.27
54453;BME280;40363;52.270;10.546;2022-08-03T01:05:09;75432.97;;;-147.06;52.27
54453;BME280;40363;52.270;10.546;2022-08-03T01:07:41;75424.75;;;-147.06;51.88
54453;BME280;40363;52.270;10.546;2022-08-03T01:10:27;75420.63;;;-147.06;52.12
54453;BME280;40363;52.270;10.546;2022-08-03T01:12:58;75422.69;;;-147.06;52.15
54453;BME280;40363;52.270;10.546;2022-08-03T01:15:31;75420.63;;;-147.06;51.85
54453;BME280;40363;52.270;10.546;2022-08-03T01:18:05;75437.06;;;-147.06;52.37
54453;BME280;40363;52.270;10.546;2022-08-03T01:20:35;75435.03;;;-147.06;52.47
54453;BME280;40363;52.270;10.546;2022-08-03T01:23:31;75443.25;;;-147.06;52.55
54453;BME280;40363;52.270;10.546;2022-08-03T01:26:11;75439.13;;;-147.06;52.42
54453;BME280;40363;52.270;10.546;2022-08-03T01:29:03;75445.31;;;-147.06;52.46
54453;BME280;40363;52.270;10.546;2022-08-03T01:31:39;75437.06;;;-147.06;52.60
54453;BME280;40363;52.270;10.546;2022-08-03T01:34:09;75437.06;;;-147.06;52.73
54453;BME280;40363;52.270;10.546;2022-08-03T01:36:40;75443.25;;;-147.06;52.45
54453;BME280;40363;52.270;10.546;2022-08-03T01:39:09;75445.31;;;-147.06;52.62
54453;BME280;40363;52.270;10.546;2022-08-03T01:41:41;75457.63;;;-147.06;52.86
54453;BME280;40363;52.270;10.546;2022-08-03T01:44:10;75461.75;;;-147.06;52.98
54453;BME280;40363;52.270;10.546;2022-08-03T01:46:39;75459.69;;;-147.06;53.17
54453;BME280;40363;52.270;10.546;2022-08-03T01:49:08;75465.84;;;-147.06;53.13
54453;BME280;40363;52.270;10.546;2022-08-03T01:51:37;75457.63;;;-147.06;53.26
54453;BME280;40363;52.270;10.546;2022-08-03T01:54:04;75463.78;;;-147.06;53.21
54453;BME280;40363;52.270;10.546;2022-08-03T01:56:35;75463.78;;;-147.06;53.38
54453;BME280;40363;52.270;10.546;2022-08-03T01:59:03;75469.97;;;-147.06;53.63
54453;BME280;40363;52.270;10.546;2022-08-03T02:01:32;75467.91;;;-147.06;53.20
54453;BME280;40363;52.270;10.546;2022-08-03T02:04:01;75467.91;;;-147.06;53.42
54453;BME280;40363;52.270;10.546;2022-08-03T02:06:31;75476.13;;;-147.06;53.10
54453;BME280;40363;52.270;10.546;2022-08-03T02:08:59;75482.28;;;-147.06;53.23
54453;BME280;40363;52.270;10.546;2022-08-03T02:11:30;75480.22;;;-147.06;53.59
54453;BME280;40363;52.270;10.546;2022-08-03T02:14:00;75469.97;;;-147.06;53.19
54453;BME280;40363;52.270;10.546;2022-08-03T02:16:32;75469.97;;;-147.06;53.02
54453;BME280;40363;52.270;10.546;2022-08-03T02:19:04;75474.06;;;-147.06;53.18
54453;BME280;40363;52.270;10.546;2022-08-03T02:21:34;75467.91;;;-147.06;52.23
54453;BME280;40363;52.270;10.546;2022-08-03T02:24:01;75467.91;;;-147.06;52.68
54453;BME280;40363;52.270;10.546;2022-08-03T02:26:29;75469.97;;;-147.06;52.63
54453;BME280;40363;52.270;10.546;2022-08-03T02:28:59;75461.75;;;-147.06;52.63
54453;BME280;40363;52.270;10.546;2022-08-03T02:31:29;75469.97;;;-147.06;53.00
54453;BME280;40363;52.270;10.546;2022-08-03T02:34:02;75463.78;;;-147.06;52.74
54453;BME280;40363;52.270;10.546;2022-08-03T02:36:31;75461.75;;;-147.06;52.64
54453;BME280;40363;52.270;10.546;2022-08-03T02:39:00;75465.84;;;-147.06;53.15
54453;BME280;40363;52.270;10.546;2022-08-03T02:41:30;75469.97;;;-147.06;53.29
54453;BME280;40363;52.270;10.546;2022-08-03T02:46:42;75467.91;;;-147.06;53.86
54453;BME280;40363;52.270;10.546;2022-08-03T02:49:12;75480.22;;;-147.06;53.58
54453;BME280;40363;52.270;10.546;2022-08-03T02:51:40;75482.28;;;-147.06;53.31
54453;BME280;40363;52.270;10.546;2022-08-03T02:54:08;75496.66;;;-147.06;52.98
54453;BME280;40363;52.270;10.546;2022-08-03T02:56:36;75494.63;;;-147.06;53.92
54453;BME280;40363;52.270;10.546;2022-08-03T02:59:03;75500.78;;;-147.06;53.58
54453;BME280;40363;52.270;10.546;2022-08-03T03:01:31;75509.00;;;-147.06;53.26
54453;BME280;40363;52.270;10.546;2022-08-03T03:03:59;75519.28;;;-147.06;53.93
54453;BME280;40363;52.270;10.546;2022-08-03T03:06:29;75509.00;;;-147.06;53.54
54453;BME280;40363;52.270;10.546;2022-08-03T03:08:56;75513.09;;;-147.06;53.73
54453;BME280;40363;52.270;10.546;2022-08-03T03:11:24;75511.06;;;-147.06;53.71
54453;BME280;40363;52.270;10.546;2022-08-03T03:13:52;75519.28;;;-147.06;54.05
54453;BME280;40363;52.270;10.546;2022-08-03T03:16:19;75519.28;;;-147.06;54.15
54453;BME280;40363;52.270;10.546;2022-08-03T03:18:48;75517.22;;;-147.06;54.18
54453;BME280;40363;52.270;10.546;2022-08-03T03:21:17;75506.94;;;-147.06;54.20
54453;BME280;40363;52.270;10.546;2022-08-03T03:23:46;75519.28;;;-147.06;54.06
54453;BME280;40363;52.270;10.546;2022-08-03T03:26:14;75515.16;;;-147.06;53.66
54453;BME280;40363;52.270;10.546;2022-08-03T03:28:41;75531.59;;;-147.06;53.48
54453;BME280;40363;52.270;10.546;2022-08-03T03:31:08;75527.50;;;-147.06;54.41
54453;BME280;40363;52.270;10.546;2022-08-03T03:33:36;75523.38;;;-147.06;54.26
54453;BME280;40363;52.270;10.546;2022-08-03T03:36:04;75525.44;;;-147.06;53.86
54453;BME280;40363;52.270;10.546;2022-08-03T03:38:31;75531.59;;;-147.06;54.45
54453;BME280;40363;52.270;10.546;2022-08-03T03:41:00;75527.50;;;-147.06;54.09
54453;BME280;40363;52.270;10.546;2022-08-03T03:43:27;75543.94;;;-147.06;53.91
54453;BME280;40363;52.270;10.546;2022-08-03T03:45:55;75543.94;;;-147.06;53.70
54453;BME280;40363;52.270;10.546;2022-08-03T03:48:23;75535.72;;;-147.06;53.85
54453;BME280;40363;52.270;10.546;2022-08-03T03:50:50;75533.66;;;-147.06;53.36
54453;BME280;40363;52.270;10.546;2022-08-03T03:53:17;75525.44;;;-147.06;53.46
54453;BME280;40363;52.270;10.546;2022-08-03T03:55:44;75543.94;;;-147.06;52.81
54453;BME280;40363;52.270;10.546;2022-08-03T03:58:12;75541.88;;;-147.06;53.80
54453;BME280;40363;52.270;10.546;2022-08-03T04:00:38;75562.44;;;-147.06;53.64
54453;BME280;40363;52.270;10.546;2022-08-03T04:03:09;75552.16;;;-147.06;54.28
54453;BME280;40363;52.270;10.546;2022-08-03T04:05:36;75556.25;;;-147.06;53.94
54453;BME280;40363;52.270;10.546;2022-08-03T04:08:20;75564.47;;;-147.06;54.38
54453;BME280;40363;52.270;10.546;2022-08-03T04:11:10;75564.47;;;-147.06;55.14
54453;BME280;40363;52.270;10.546;2022-08-03T04:13:43;75550.09;;;-147.06;53.83
54453;BME280;40363;52.270;10.546;2022-08-03T04:16:16;75548.03;;;-147.06;54.38
54453;BME280;40363;52.270;10.546;2022-08-03T04:18:48;75548.03;;;-147.06;54.28
54453;BME280;40363;52.270;10.546;2022-08-03T04:21:34;75535.72;;;-147.06;54.34
54453;BME280;40363;52.270;10.546;2022-08-03T04:24:03;75543.94;;;-147.06;54.09
54453;BME280;40363;52.270;10.546;2022-08-03T04:26:35;75527.50;;;-147.06;53.64
54453;BME280;40363;52.270;10.546;2022-08-03T04:29:08;75527.50;;;-147.06;52.58
54453;BME280;40363;52.270;10.546;2022-08-03T04:31:37;75515.16;;;-147.06;52.86
54453;BME280;40363;52.270;10.546;2022-08-03T04:34:06;75506.94;;;-147.06;52.75
54453;BME280;40363;52.270;10.546;2022-08-03T04:36:37;75502.84;;;-147.06;53.32
54453;BME280;40363;52.270;10.546;2022-08-03T04:39:12;75502.84;;;-147.06;53.36
54453;BME280;40363;52.270;10.546;2022-08-03T04:41:42;75502.84;;;-147.06;53.35
54453;BME280;40363;52.270;10.546;2022-08-03T04:44:13;75500.78;;;-147.06;52.71
54453;BME280;40363;52.270;10.546;2022-08-03T04:46:41;75502.84;;;-147.06;52.79
54453;BME280;40363;52.270;10.546;2022-08-03T04:49:09;75488.44;;;-147.06;52.61
54453;BME280;40363;52.270;10.546;2022-08-03T04:51:36;75474.06;;;-147.06;51.74
54453;BME280;40363;52.270;10.546;2022-08-03T04:54:05;75474.06;;;-147.06;51.55
54453;BME280;40363;52.270;10.546;2022-08-03T04:56:32;75461.75;;;-147.06;51.46
54453;BME280;40363;52.270;10.546;2022-08-03T04:58:59;75461.75;;;-147.06;51.20
54453;BME280;40363;52.270;10.546;2022-08-03T05:01:27;75443.25;;;-147.06;50.63
54453;BME280;40363;52.270;10.546;2022-08-03T05:03:54;75437.06;;;-147.06;50.52
54453;BME280;40363;52.270;10.546;2022-08-03T05:06:21;75432.97;;;-147.06;50.55
54453;BME280;40363;52.270;10.546;2022-08-03T05:08:47;75426.81;;;-147.06;50.26
54453;BME280;40363;52.270;10.546;2022-08-03T05:11:14;75422.69;;;-147.06;50.10
54453;BME280;40363;52.270;10.546;2022-08-03T05:13:41;75412.41;;;-147.06;49.74
54453;BME280;40363;52.270;10.546;2022-08-03T05:16:08;75391.88;;;-147.06;49.45
54453;BME280;40363;52.270;10.546;2022-08-03T05:18:37;75377.50;;;-147.06;49.09
54453;BME280;40363;52.270;10.546;2022-08-03T05:21:04;75375.44;;;-147.06;48.84
54453;BME280;40363;52.270;10.546;2022-08-03T05:23:31;75356.94;;;-147.06;48.77
54453;BME280;40363;52.270;10.546;2022-08-03T05:26:00;75334.34;;;-147.06;48.39
54453;BME280;40363;52.270;10.546;2022-08-03T05:28:27;75317.91;;;-147.06;48.21
54453;BME280;40363;52.270;10.546;2022-08-03T05:30:53;75313.78;;;-147.06;48.17
54453;BME280;40363;52.270;10.546;2022-08-03T05:33:20;75301.47;;;-147.06;47.92
54453;BME280;40363;52.270;10.546;2022-08-03T05:35:49;75307.63;;;-147.06;47.81
54453;BME280;40363;52.270;10.546;2022-08-03T05:38:15;75301.47;;;-147.06;48.02
54453;BME280;40363;52.270;10.546;2022-08-03T05:40:42;75293.25;;;-147.06;47.96
54453;BME280;40363;52.270;10.546;2022-08-03T05:43:09;75287.06;;;-147.06;47.46
54453;BME280;40363;52.270;10.546;2022-08-03T05:45:36;75270.63;;;-147.06;47.64
54453;BME280;40363;52.270;10.546;2022-08-03T05:48:04;75258.31;;;-147.06;47.35
54453;BME280;40363;52.270;10.546;2022-08-03T05:50:30;75268.59;;;-147.06;47.60
54453;BME280;40363;52.270;10.546;2022-08-03T05:52:58;75241.88;;;-147.06;47.10
54453;BME280;40363;52.270;10.546;2022-08-03T05:55:25;75239.81;;;-147.06;46.86
54453;BME280;40363;52.270;10.546;2022-08-03T05:57:52;75237.75;;;-147.06;47.26
54453;BME280;40363;52.270;10.546;2022-08-03T06:00:19;75219.28;;;-147.06;46.97
54453;BME280;40363;52.270;10.546;2022-08-03T06:02:45;75194.63;;;-147.06;46.65
54453;BME280;40363;52.270;10.546;2022-08-03T06:05:12;75211.06;;;-147.06;46.77
54453;BME280;40363;52.270;10.546;2022-08-03T06:07:39;75190.50;;;-147.06;46.34
54453;BME280;40363;52.270;10.546;2022-08-03T06:10:08;75178.19;;;-147.06;46.01
54453;BME280;40363;52.270;10.546;2022-08-03T06:12:35;75161.75;;;-147.06;46.01
54453;BME280;40363;52.270;10.546;2022-08-03T06:15:02;75139.13;;;-147.06;45.74
54453;BME280;40363;52.270;10.546;2022-08-03T06:17:29;75112.44;;;-147.06;44.83
54453;BME280;40363;52.270;10.546;2022-08-03T06:19:56;75093.94;;;-147.06;45.06
54453;BME280;40363;52.270;10.546;2022-08-03T06:22:23;75081.59;;;-147.06;44.31
54453;BME280;40363;52.270;10.546;2022-08-03T06:24:49;75011.75;;;-147.06;43.61
54453;BME280;40363;52.270;10.546;2022-08-03T06:27:17;74943.94;;;-147.06;42.62
54453;BME280;40363;52.270;10.546;2022-08-03T06:29:44;74853.53;;;-147.06;41.27
54453;BME280;40363;52.270;10.546;2022-08-03T06:32:11;74763.16;;;-147.06;39.91
54453;BME280;40363;52.270;10.546;2022-08-03T06:34:38;74654.25;;;-147.06;38.67
54453;BME280;40363;52.270;10.546;2022-08-03T06:37:04;74660.44;;;-147.06;38.83
54453;BME280;40363;52.270;10.546;2022-08-03T06:39:31;74594.69;;;-147.06;37.70
54453;BME280;40363;52.270;10.546;2022-08-03T06:41:58;74533.06;;;-147.06;37.44
54453;BME280;40363;52.270;10.546;2022-08-03T06:44:26;74420.06;;;-147.06;35.90
54453;BME280;40363;52.270;10.546;2022-08-03T06:46:53;74315.28;;;-147.06;34.98
54453;BME280;40363;52.270;10.546;2022-08-03T06:49:20;74356.38;;;-147.06;34.98
54453;BME280;40363;52.270;10.546;2022-08-03T06:51:46;74418.00;;;-147.06;35.92
54453;BME280;40363;52.270;10.546;2022-08-03T06:54:15;74401.56;;;-147.06;35.56
54453;BME280;40363;52.270;10.546;2022-08-03T06:56:41;74235.19;;;-147.06;33.75
54453;BME280;40363;52.270;10.546;2022-08-03T06:59:08;74231.06;;;-147.06;33.86
54453;BME280;40363;52.270;10.546;2022-08-03T07:01:37;74255.72;;;-147.06;33.80
54453;BME280;40363;52.270;10.546;2022-08-03T07:04:04;74224.91;;;-147.06;33.16
54453;BME280;40363;52.270;10.546;2022-08-03T07:06:31;74130.41;;;-147.06;32.56
54453;BME280;40363;52.270;10.546;2022-08-03T07:08:58;74099.59;;;-147.06;32.09
54453;BME280;40363;52.270;10.546;2022-08-03T07:11:25;74120.16;;;-147.06;32.33
54453;BME280;40363;52.270;10.546;2022-08-03T07:13:52;74064.69;;;-147.06;32.01
54453;BME280;40363;52.270;10.546;2022-08-03T07:16:20;74060.56;;;-147.06;31.82
54453;BME280;40363;52.270;10.546;2022-08-03T07:18:48;74040.03;;;-147.06;31.28
54453;BME280;40363;52.270;10.546;2022-08-03T07:21:15;73982.53;;;-147.06;30.97
54453;BME280;40363;52.270;10.546;2022-08-03T07:23:42;73943.50;;;-147.06;30.28
54453;BME280;40363;52.270;10.546;2022-08-03T07:26:08;74003.06;;;-147.06;30.99
54453;BME280;40363;52.270;10.546;2022-08-03T07:28:35;74015.38;;;-147.06;31.08
54453;BME280;40363;52.270;10.546;2022-08-03T07:31:02;74031.81;;;-147.06;31.53
54453;BME280;40363;52.270;10.546;2022-08-03T07:33:29;73994.84;;;-147.06;31.35
54453;BME280;40363;52.270;10.546;2022-08-03T07:35:57;74009.22;;;-147.06;31.57
54453;BME280;40363;52.270;10.546;2022-08-03T07:38:24;74054.41;;;-147.06;31.95
54453;BME280;40363;52.270;10.546;2022-08-03T07:40:50;74105.78;;;-147.06;32.26
54453;BME280;40363;52.270;10.546;2022-08-03T07:43:18;73931.16;;;-147.06;31.07
54453;BME280;40363;52.270;10.546;2022-08-03T07:45:45;73957.88;;;-147.06;31.47
54453;BME280;40363;52.270;10.546;2022-08-03T07:48:12;73933.22;;;-147.06;31.21
54453;BME280;40363;52.270;10.546;2022-08-03T07:50:39;74011.28;;;-147.06;31.64
54453;BME280;40363;52.270;10.546;2022-08-03T07:53:07;73904.47;;;-147.06;30.98
54453;BME280;40363;52.270;10.546;2022-08-03T07:55:33;73929.13;;;-147.06;31.04
54453;BME280;40363;52.270;10.546;2022-08-03T07:58:02;73959.94;;;-147.06;31.34
54453;BME280;40363;52.270;10.546;2022-08-03T08:00:29;73941.44;;;-147.06;31.41
54453;BME280;40363;52.270;10.546;2022-08-03T08:02:56;73984.56;;;-147.06;31.73
54453;BME280;40363;52.270;10.546;2022-08-03T08:05:23;73871.59;;;-147.06;30.72
54453;BME280;40363;52.270;10.546;2022-08-03T08:07:50;73842.84;;;-147.06;30.59
54453;BME280;40363;52.270;10.546;2022-08-03T08:10:18;73861.34;;;-147.06;30.71
54453;BME280;40363;52.270;10.546;2022-08-03T08:12:45;73742.19;;;-147.06;29.74
54453;BME280;40363;52.270;10.546;2022-08-03T08:15:12;73682.63;;;-147.06;29.35
54453;BME280;40363;52.270;10.546;2022-08-03T08:17:43;73645.66;;;-147.06;29.05
54453;BME280;40363;52.270;10.546;2022-08-03T08:20:14;73715.50;;;-147.06;28.92
54453;BME280;40363;52.270;10.546;2022-08-03T08:22:41;73658.00;;;-147.06;28.32
54453;BME280;40363;52.270;10.546;2022-08-03T08:25:08;73662.09;;;-147.06;28.39
54453;BME280;40363;52.270;10.546;2022-08-03T08:27:42;73658.00;;;-147.06;28.03
54453;BME280;40363;52.270;10.546;2022-08-03T08:30:09;73637.44;;;-147.06;27.92
54453;BME280;40363;52.270;10.546;2022-08-03T08:32:36;73653.88;;;-147.06;28.30
54453;BME280;40363;52.270;10.546;2022-08-03T08:35:03;73645.66;;;-147.06;28.50
54453;BME280;40363;52.270;10.546;2022-08-03T08:37:29;73694.97;;;-147.06;28.55
54453;BME280;40363;52.270;10.546;2022-08-03T08:39:56;73773.00;;;-147.06;29.27
54453;BME280;40363;52.270;10.546;2022-08-03T08:42:23;73727.81;;;-147.06;29.17
54453;BME280;40363;52.270;10.546;2022-08-03T08:44:51;73750.41;;;-147.06;29.17
54453;BME280;40363;52.270;10.546;2022-08-03T08:47:19;73756.56;;;-147.06;29.24
54453;BME280;40363;52.270;10.546;2022-08-03T08:49:50;73760.69;;;-147.06;29.29
54453;BME280;40363;52.270;10.546;2022-08-03T08:52:18;73812.03;;;-147.06;29.59
54453;BME280;40363;52.270;10.546;2022-08-03T08:54:47;73752.47;;;-147.06;29.32
54453;BME280;40363;52.270;10.546;2022-08-03T08:57:14;73756.56;;;-147.06;29.31
54453;BME280;40363;52.270;10.546;2022-08-03T08:59:42;73770.94;;;-147.06;29.27
54453;BME280;40363;52.270;10.546;2022-08-03T09:02:13;73770.94;;;-147.06;29.26
54453;BME280;40363;52.270;10.546;2022-08-03T09:04:40;73754.53;;;-147.06;29.21
54453;BME280;40363;52.270;10.546;2022-08-03T09:07:06;73717.56;;;-147.06;29.08
54453;BME280;40363;52.270;10.546;2022-08-03T09:09:33;73736.03;;;-147.06;28.88
54453;BME280;40363;52.270;10.546;2022-08-03T09:12:00;73756.56;;;-147.06;29.26
54453;BME280;40363;52.270;10.546;2022-08-03T09:14:28;73715.50;;;-147.06;29.27
54453;BME280;40363;52.270;10.546;2022-08-03T09:16:55;73705.22;;;-147.06;29.25
54453;BME280;40363;52.270;10.546;2022-08-03T09:19:27;73729.88;;;-147.06;28.99
54453;BME280;40363;52.270;10.546;2022-08-03T09:22:15;73637.44;;;-147.06;28.48
54453;BME280;40363;52.270;10.546;2022-08-03T09:24:53;73694.97;;;-147.06;28.76
54453;BME280;40363;52.270;10.546;2022-08-03T09:27:21;73775.06;;;-147.06;29.02
54453;BME280;40363;52.270;10.546;2022-08-03T09:29:49;73723.72;;;-147.06;28.83
54453;BME280;40363;52.270;10.546;2022-08-03T09:32:18;73680.59;;;-147.06;28.87
54453;BME280;40363;52.270;10.546;2022-08-03T09:34:47;73725.78;;;-147.06;28.87
54453;BME280;40363;52.270;10.546;2022-08-03T09:37:17;73822.31;;;-147.06;29.42
54453;BME280;40363;52.270;10.546;2022-08-03T09:39:45;73877.75;;;-147.06;29.86
54453;BME280;40363;52.270;10.546;2022-08-03T09:42:13;73855.16;;;-147.06;29.83
54453;BME280;40363;52.270;10.546;2022-08-03T09:44:42;73877.75;;;-147.06;29.48
54453;BME280;40363;52.270;10.546;2022-08-03T09:47:11;73785.34;;;-147.06;29.46
54453;BME280;40363;52.270;10.546;2022-08-03T09:49:39;73699.06;;;-147.06;29.10
54453;BME280;40363;52.270;10.546;2022-08-03T09:52:14;73736.03;;;-147.06;28.78
54453;BME280;40363;52.270;10.546;2022-08-03T09:54:43;73838.75;;;-147.06;29.65
54453;BME280;40363;52.270;10.546;2022-08-03T09:57:20;73824.34;;;-147.06;29.66
54453;BME280;40363;52.270;10.546;2022-08-03T09:59:48;73842.84;;;-147.06;29.59
54453;BME280;40363;52.270;10.546;2022-08-03T10:02:25;73814.09;;;-147.06;29.48
54453;BME280;40363;52.270;10.546;2022-08-03T10:04:53;73830.53;;;-147.06;29.50
54453;BME280;40363;52.270;10.546;2022-08-03T10:07:22;73760.69;;;-147.06;29.06
54453;BME280;40363;52.270;10.546;2022-08-03T10:09:54;73764.78;;;-147.06;29.20
54453;BME280;40363;52.270;10.546;2022-08-03T10:12:21;73770.94;;;-147.06;29.21
54453;BME280;40363;52.270;10.546;2022-08-03T10:14:48;73731.94;;;-147.06;28.94
54453;BME280;40363;52.270;10.546;2022-08-03T10:17:15;73744.25;;;-147.06;29.04
54453;BME280;40363;52.270;10.546;2022-08-03T10:19:41;73822.31;;;-147.06;29.53
54453;BME280;40363;52.270;10.546;2022-08-03T10:22:11;73754.53;;;-147.06;29.00
54453;BME280;40363;52.270;10.546;2022-08-03T10:24:49;73715.50;;;-147.06;29.29
54453;BME280;40363;52.270;10.546;2022-08-03T10:27:22;73723.72;;;-147.06;29.00
54453;BME280;40363;52.270;10.546;2022-08-03T10:29:51;73740.16;;;-147.06;29.04
54453;BME280;40363;52.270;10.546;2022-08-03T10:32:21;73758.63;;;-147.06;28.94
54453;BME280;40363;52.270;10.546;2022-08-03T10:34:49;73729.88;;;-147.06;28.96
54453;BME280;40363;52.270;10.546;2022-08-03T10:37:18;73709.34;;;-147.06;28.57
54453;BME280;40363;52.270;10.546;2022-08-03T10:39:48;73760.69;;;-147.06;29.03
54453;BME280;40363;52.270;10.546;2022-08-03T10:42:20;73775.06;;;-147.06;29.17
54453;BME280;40363;52.270;10.546;2022-08-03T10:44:54;73787.38;;;-147.06;29.08
54453;BME280;40363;52.270;10.546;2022-08-03T10:47:22;73762.75;;;-147.06;29.16
54453;BME280;40363;52.270;10.546;2022-08-03T10:49:49;73748.34;;;-147.06;29.10
54453;BME280;40363;52.270;10.546;2022-08-03T10:52:16;73777.13;;;-147.06;29.45
54453;BME280;40363;52.270;10.546;2022-08-03T10:54:43;73727.81;;;-147.06;29.14
54453;BME280;40363;52.270;10.546;2022-08-03T10:57:45;73742.19;;;-147.06;29.16
54453;BME280;40363;52.270;10.546;2022-08-03T11:00:13;73768.91;;;-147.06;29.16
54453;BME280;40363;52.270;10.546;2022-08-03T11:03:06;73779.16;;;-147.06;29.37
54453;BME280;40363;52.270;10.546;2022-08-03T11:05:34;73760.69;;;-147.06;29.10
54453;BME280;40363;52.270;10.546;2022-08-03T11:08:25;73805.88;;;-147.06;29.41
54453;BME280;40363;52.270;10.546;2022-08-03T11:10:54;73818.19;;;-147.06;29.38
54453;BME280;40363;52.270;10.546;2022-08-03T11:13:23;73830.53;;;-147.06;29.36
54453;BME280;40363;52.270;10.546;2022-08-03T11:15:54;73861.34;;;-147.06;29.64
54453;BME280;40363;52.270;10.546;2022-08-03T11:18:21;73892.13;;;-147.06;29.95
54453;BME280;40363;52.270;10.546;2022-08-03T11:20:50;73906.53;;;-147.06;29.52
54453;BME280;40363;52.270;10.546;2022-08-03T11:23:19;73896.25;;;-147.06;29.67
54453;BME280;40363;52.270;10.546;2022-08-03T11:26:11;73912.69;;;-147.06;29.97
54453;BME280;40363;52.270;10.546;2022-08-03T11:28:40;73914.75;;;-147.06;30.23
54453;BME280;40363;52.270;10.546;2022-08-03T11:31:44;73916.78;;;-147.06;30.26
54453;BME280;40363;52.270;10.546;2022-08-03T11:34:13;73929.13;;;-147.06;30.18
54453;BME280;40363;52.270;10.546;2022-08-03T11:39:46;73941.44;;;-147.06;30.37
54453;BME280;40363;52.270;10.546;2022-08-03T11:42:41;73937.34;;;-147.06;30.19
54453;BME280;40363;52.270;10.546;2022-08-03T11:45:11;73972.25;;;-147.06;30.53
54453;BME280;40363;52.270;10.546;2022-08-03T11:47:38;73974.31;;;-147.06;30.43
54453;BME280;40363;52.270;10.546;2022-08-03T11:50:06;73957.88;;;-147.06;30.33
54453;BME280;40363;52.270;10.546;2022-08-03T11:52:34;73945.53;;;-147.06;30.46
54453;BME280;40363;52.270;10.546;2022-08-03T11:55:02;73966.09;;;-147.06;30.02
54453;BME280;40363;52.270;10.546;2022-08-03T11:57:34;73943.50;;;-147.06;29.52
54453;BME280;40363;52.270;10.546;2022-08-03T12:00:01;73927.06;;;-147.06;29.83
54453;BME280;40363;52.270;10.546;2022-08-03T12:02:29;73927.06;;;-147.06;30.31
54453;BME280;40363;52.270;10.546;2022-08-03T12:04:58;73966.09;;;-147.06;29.86
54453;BME280;40363;52.270;10.546;2022-08-03T12:07:26;73939.38;;;-147.06;30.04
54453;BME280;40363;52.270;10.546;2022-08-03T12:10:07;73961.97;;;-147.06;29.83
54453;BME280;40363;52.270;10.546;2022-08-03T12:12:34;73966.09;;;-147.06;30.30
54453;BME280;40363;52.270;10.546;2022-08-03T12:15:01;73933.22;;;-147.06;30.18
54453;BME280;40363;52.270;10.546;2022-08-03T12:17:33;73918.84;;;-147.06;29.81
54453;BME280;40363;52.270;10.546;2022-08-03T12:19:59;73914.75;;;-147.06;29.88
54453;BME280;40363;52.270;10.546;2022-08-03T12:22:30;73914.75;;;-147.06;30.09
54453;BME280;40363;52.270;10.546;2022-08-03T12:25:00;73896.25;;;-147.06;30.04
54453;BME280;40363;52.270;10.546;2022-08-03T12:27:27;73904.47;;;-147.06;29.94
54453;BME280;40363;52.270;10.546;2022-08-03T12:29:55;73875.72;;;-147.06;29.75
54453;BME280;40363;52.270;10.546;2022-08-03T12:32:22;73902.41;;;-147.06;29.48
54453;BME280;40363;52.270;10.546;2022-08-03T12:34:51;73885.97;;;-147.06;29.38
54453;BME280;40363;52.270;10.546;2022-08-03T12:37:18;73922.94;;;-147.06;29.74
54453;BME280;40363;52.270;10.546;2022-08-03T12:39:48;73908.56;;;-147.06;30.00
54453;BME280;40363;52.270;10.546;2022-08-03T12:42:16;73875.72;;;-147.06;29.75
54453;BME280;40363;52.270;10.546;2022-08-03T12:44:43;73865.44;;;-147.06;29.82
54453;BME280;40363;52.270;10.546;2022-08-03T12:47:13;73875.72;;;-147.06;29.40